sensor_id;sensor_type;location;lat;lon;timestamp;temperature;humidity
37086;DHT22;23001;45.952;12.676;2024-01-25T00:01:29;3.90;99.90
37086;DHT22;23001;45.952;12.676;2024-01-25T00:03:54;3.80;99.90
37086;DHT22;23001;45.952;12.676;2024-01-25T00:06:20;3.80;99.90
37086;DHT22;23001;45.952;12.676;2024-01-25T00:08:49;3.80;99.90
37086;DHT22;23001;45.952;12.676;2024-01-25T00:11:15;3.80;99.90
37086;DHT22;23001;45.952;12.676;2024-01-25T00:13:46;3.70;99.90
37086;DHT22;23001;45.952;12.676;2024-01-25T00:16:12;3.70;99.90
37086;DHT22;23001;45.952;12.676;2024-01-25T00:18:39;3.70;99.90
37086;DHT22;23001;45.952;12.676;2024-01-25T00:21:05;3.70;99.90
37086;DHT22;23001;45.952;12.676;2024-01-25T00:23:30;3.70;99.90
37086;DHT22;23001;45.952;12.676;2024-01-25T00:25:56;3.70;99.90
37086;DHT22;23001;45.952;12.676;2024-01-25T00:28:25;3.60;99.90
37086;DHT22;23001;45.952;12.676;2024-01-25T00:30:51;3.60;99.90
37086;DHT22;23001;45.952;12.676;2024-01-25T00:33:16;3.70;99.90
37086;DHT22;23001;45.952;12.676;2024-01-25T00:35:42;3.70;99.90
37086;DHT22;23001;45.952;12.676;2024-01-25T00:38:09;3.60;99.90
37086;DHT22;23001;45.952;12.676;2024-01-25T00:40:35;3.60;99.90
37086;DHT22;23001;45.952;12.676;2024-01-25T00:43:01;3.60;99.90
37086;DHT22;23001;45.952;12.676;2024-01-25T00:45:27;3.60;99.90
37086;DHT22;23001;45.952;12.676;2024-01-25T00:47:53;3.60;99.90
37086;DHT22;23001;45.952;12.676;2024-01-25T00:50:20;3.70;99.90
37086;DHT22;23001;45.952;12.676;2024-01-25T00:52:49;3.70;99.90
37086;DHT22;23001;45.952;12.676;2024-01-25T00:55:16;3.70;99.90
37086;DHT22;23001;45.952;12.676;2024-01-25T00:57:42;3.60;99.90
37086;DHT22;23001;45.952;12.676;2024-01-25T01:00:08;3.60;99.90
37086;DHT22;23001;45.952;12.676;2024-01-25T01:02:44;3.50;99.90
37086;DHT22;23001;45.952;12.676;2024-01-25T01:05:11;3.50;99.90
37086;DHT22;23001;45.952;12.676;2024-01-25T01:07:40;3.50;99.90
37086;DHT22;23001;45.952;12.676;2024-01-25T01:10:07;3.40;99.90
37086;DHT22;23001;45.952;12.676;2024-01-25T01:12:34;3.50;99.90
37086;DHT22;23001;45.952;12.676;2024-01-25T01:15:03;3.40;99.90
37086;DHT22;23001;45.952;12.676;2024-01-25T01:17:29;3.40;99.90
37086;DHT22;23001;45.952;12.676;2024-01-25T01:19:55;3.40;99.90
37086;DHT22;23001;45.952;12.676;2024-01-25T01:22:21;3.50;99.90
37086;DHT22;23001;45.952;12.676;2024-01-25T01:24:47;3.40;99.90
37086;DHT22;23001;45.952;12.676;2024-01-25T01:27:13;3.50;99.90
37086;DHT22;23001;45.952;12.676;2024-01-25T01:30:10;3.40;99.90
37086;DHT22;23001;45.952;12.676;2024-01-25T01:32:36;3.50;99.90
37086;DHT22;23001;45.952;12.676;2024-01-25T01:35:02;3.40;99.90
37086;DHT22;23001;45.952;12.676;2024-01-25T01:37:28;3.30;99.90
37086;DHT22;23001;45.952;12.676;2024-01-25T01:39:57;3.40;99.90
37086;DHT22;23001;45.952;12.676;2024-01-25T01:42:24;3.40;99.90
37086;DHT22;23001;45.952;12.676;2024-01-25T01:44:50;3.30;99.90
37086;DHT22;23001;45.952;12.676;2024-01-25T01:47:17;3.20;99.90
37086;DHT22;23001;45.952;12.676;2024-01-25T01:49:43;3.30;99.90
37086;DHT22;23001;45.952;12.676;2024-01-25T01:52:10;3.30;99.90
37086;DHT22;23001;45.952;12.676;2024-01-25T01:54:36;3.40;99.90
37086;DHT22;23001;45.952;12.676;2024-01-25T01:57:03;3.40;99.90
37086;DHT22;23001;45.952;12.676;2024-01-25T01:59:29;3.40;99.90
37086;DHT22;23001;45.952;12.676;2024-01-25T02:01:56;3.40;99.90
37086;DHT22;23001;45.952;12.676;2024-01-25T02:04:25;3.40;99.90
37086;DHT22;23001;45.952;12.676;2024-01-25T02:06:51;3.30;99.90
37086;DHT22;23001;45.952;12.676;2024-01-25T02:09:17;3.40;99.90
37086;DHT22;23001;45.952;12.676;2024-01-25T02:11:43;3.30;99.90
37086;DHT22;23001;45.952;12.676;2024-01-25T02:14:08;3.20;99.90
37086;DHT22;23001;45.952;12.676;2024-01-25T02:16:37;3.30;99.90
37086;DHT22;23001;45.952;12.676;2024-01-25T02:19:03;3.30;99.90
37086;DHT22;23001;45.952;12.676;2024-01-25T02:21:29;3.30;99.90
37086;DHT22;23001;45.952;12.676;2024-01-25T02:23:55;3.30;99.90
37086;DHT22;23001;45.952;12.676;2024-01-25T02:26:20;3.40;99.90
37086;DHT22;23001;45.952;12.676;2024-01-25T02:28:46;3.30;99.90
37086;DHT22;23001;45.952;12.676;2024-01-25T02:31:12;3.40;99.90
37086;DHT22;23001;45.952;12.676;2024-01-25T02:33:38;3.30;99.90
37086;DHT22;23001;45.952;12.676;2024-01-25T02:36:04;3.40;99.90
37086;DHT22;23001;45.952;12.676;2024-01-25T02:38:51;3.40;99.90
37086;DHT22;23001;45.952;12.676;2024-01-25T02:41:16;3.30;99.90
37086;DHT22;23001;45.952;12.676;2024-01-25T02:43:42;3.30;99.90
37086;DHT22;23001;45.952;12.676;2024-01-25T02:46:08;3.40;99.90
37086;DHT22;23001;45.952;12.676;2024-01-25T02:48:36;3.40;99.90
37086;DHT22;23001;45.952;12.676;2024-01-25T02:51:25;3.40;99.90
37086;DHT22;23001;45.952;12.676;2024-01-25T02:53:51;3.30;99.90
37086;DHT22;23001;45.952;12.676;2024-01-25T02:56:20;3.40;99.90
37086;DHT22;23001;45.952;12.676;2024-01-25T02:59:00;3.40;99.90
37086;DHT22;23001;45.952;12.676;2024-01-25T03:01:37;3.40;99.90
37086;DHT22;23001;45.952;12.676;2024-01-25T03:04:04;3.40;99.90
37086;DHT22;23001;45.952;12.676;2024-01-25T03:06:29;3.50;99.90
37086;DHT22;23001;45.952;12.676;2024-01-25T03:08:55;3.50;99.90
37086;DHT22;23001;45.952;12.676;2024-01-25T03:11:21;3.50;99.90
37086;DHT22;23001;45.952;12.676;2024-01-25T03:13:47;3.50;99.90
37086;DHT22;23001;45.952;12.676;2024-01-25T03:16:13;3.50;99.90
37086;DHT22;23001;45.952;12.676;2024-01-25T03:18:44;3.50;99.90
37086;DHT22;23001;45.952;12.676;2024-01-25T03:21:10;3.60;99.90
37086;DHT22;23001;45.952;12.676;2024-01-25T03:23:42;3.60;99.90
37086;DHT22;23001;45.952;12.676;2024-01-25T03:26:07;3.60;99.90
37086;DHT22;23001;45.952;12.676;2024-01-25T03:28:35;3.70;99.90
37086;DHT22;23001;45.952;12.676;2024-01-25T03:31:06;3.70;99.90
37086;DHT22;23001;45.952;12.676;2024-01-25T03:33:32;3.60;99.90
37086;DHT22;23001;45.952;12.676;2024-01-25T03:36:06;3.60;99.90
37086;DHT22;23001;45.952;12.676;2024-01-25T03:38:33;3.60;99.90
37086;DHT22;23001;45.952;12.676;2024-01-25T03:41:01;3.60;99.90
37086;DHT22;23001;45.952;12.676;2024-01-25T03:43:27;3.50;99.90
37086;DHT22;23001;45.952;12.676;2024-01-25T03:45:53;3.60;99.90
37086;DHT22;23001;45.952;12.676;2024-01-25T03:48:19;3.60;99.90
37086;DHT22;23001;45.952;12.676;2024-01-25T03:50:47;3.70;99.90
37086;DHT22;23001;45.952;12.676;2024-01-25T03:53:13;3.70;99.90
37086;DHT22;23001;45.952;12.676;2024-01-25T03:55:41;3.70;99.90
37086;DHT22;23001;45.952;12.676;2024-01-25T03:58:07;3.70;99.90
37086;DHT22;23001;45.952;12.676;2024-01-25T04:00:32;3.70;99.90
37086;DHT22;23001;45.952;12.676;2024-01-25T04:02:58;3.70;99.90
37086;DHT22;23001;45.952;12.676;2024-01-25T04:05:24;3.70;99.90
37086;DHT22;23001;45.952;12.676;2024-01-25T04:07:52;3.70;99.90
37086;DHT22;23001;45.952;12.676;2024-01-25T04:10:17;3.60;99.90
37086;DHT22;23001;45.952;12.676;2024-01-25T04:12:43;3.70;99.90
37086;DHT22;23001;45.952;12.676;2024-01-25T04:15:12;3.70;99.90
37086;DHT22;23001;45.952;12.676;2024-01-25T04:17:38;3.80;99.90
37086;DHT22;23001;45.952;12.676;2024-01-25T04:20:08;3.80;99.90
37086;DHT22;23001;45.952;12.676;2024-01-25T04:22:35;3.70;99.90
37086;DHT22;23001;45.952;12.676;2024-01-25T04:25:01;3.70;99.90
37086;DHT22;23001;45.952;12.676;2024-01-25T04:27:27;3.70;99.90
37086;DHT22;23001;45.952;12.676;2024-01-25T04:29:53;3.80;99.90
37086;DHT22;23001;45.952;12.676;2024-01-25T04:32:19;3.80;99.90
37086;DHT22;23001;45.952;12.676;2024-01-25T04:34:48;3.80;99.90
37086;DHT22;23001;45.952;12.676;2024-01-25T04:37:14;3.80;99.90
37086;DHT22;23001;45.952;12.676;2024-01-25T04:39:40;3.80;99.90
37086;DHT22;23001;45.952;12.676;2024-01-25T04:42:05;3.80;99.90
37086;DHT22;23001;45.952;12.676;2024-01-25T04:44:31;3.80;99.90
37086;DHT22;23001;45.952;12.676;2024-01-25T04:46:57;3.80;99.90
37086;DHT22;23001;45.952;12.676;2024-01-25T04:49:23;3.80;99.90
37086;DHT22;23001;45.952;12.676;2024-01-25T04:51:49;3.80;99.90
37086;DHT22;23001;45.952;12.676;2024-01-25T04:54:16;3.80;99.90
37086;DHT22;23001;45.952;12.676;2024-01-25T04:56:42;3.80;99.90
37086;DHT22;23001;45.952;12.676;2024-01-25T04:59:08;3.80;99.90
37086;DHT22;23001;45.952;12.676;2024-01-25T05:01:34;3.80;99.90
37086;DHT22;23001;45.952;12.676;2024-01-25T05:04:00;3.80;99.90
37086;DHT22;23001;45.952;12.676;2024-01-25T05:06:26;3.80;99.90
37086;DHT22;23001;45.952;12.676;2024-01-25T05:08:51;3.80;99.90
37086;DHT22;23001;45.952;12.676;2024-01-25T05:11:17;3.80;99.90
37086;DHT22;23001;45.952;12.676;2024-01-25T05:13:43;3.90;99.90
37086;DHT22;23001;45.952;12.676;2024-01-25T05:16:09;3.90;99.90
37086;DHT22;23001;45.952;12.676;2024-01-25T05:18:35;3.90;99.90
37086;DHT22;23001;45.952;12.676;2024-01-25T05:21:00;3.90;99.90
37086;DHT22;23001;45.952;12.676;2024-01-25T05:23:26;3.90;99.90
37086;DHT22;23001;45.952;12.676;2024-01-25T05:25:52;3.80;99.90
37086;DHT22;23001;45.952;12.676;2024-01-25T05:28:18;3.80;99.90
37086;DHT22;23001;45.952;12.676;2024-01-25T05:30:44;3.90;99.90
37086;DHT22;23001;45.952;12.676;2024-01-25T05:33:10;3.90;99.90
37086;DHT22;23001;45.952;12.676;2024-01-25T05:35:36;3.90;99.90
37086;DHT22;23001;45.952;12.676;2024-01-25T05:38:01;4.00;99.90
37086;DHT22;23001;45.952;12.676;2024-01-25T05:40:27;4.00;99.90
37086;DHT22;23001;45.952;12.676;2024-01-25T05:42:53;4.00;99.90
37086;DHT22;23001;45.952;12.676;2024-01-25T05:45:19;3.90;99.90
37086;DHT22;23001;45.952;12.676;2024-01-25T05:47:47;4.00;99.90
37086;DHT22;23001;45.952;12.676;2024-01-25T05:50:14;3.90;99.90
37086;DHT22;23001;45.952;12.676;2024-01-25T05:52:39;3.90;99.90
37086;DHT22;23001;45.952;12.676;2024-01-25T05:55:05;3.90;99.90
37086;DHT22;23001;45.952;12.676;2024-01-25T05:57:34;3.90;99.90
37086;DHT22;23001;45.952;12.676;2024-01-25T06:00:00;3.90;99.90
37086;DHT22;23001;45.952;12.676;2024-01-25T06:02:26;3.90;99.90
37086;DHT22;23001;45.952;12.676;2024-01-25T06:04:52;3.90;99.90
37086;DHT22;23001;45.952;12.676;2024-01-25T06:07:18;3.90;99.90
37086;DHT22;23001;45.952;12.676;2024-01-25T06:09:44;3.90;99.90
37086;DHT22;23001;45.952;12.676;2024-01-25T06:12:10;3.80;99.90
37086;DHT22;23001;45.952;12.676;2024-01-25T06:14:35;3.90;99.90
37086;DHT22;23001;45.952;12.676;2024-01-25T06:17:01;3.90;99.90
37086;DHT22;23001;45.952;12.676;2024-01-25T06:19:31;3.90;99.90
37086;DHT22;23001;45.952;12.676;2024-01-25T06:25:40;3.90;99.90
37086;DHT22;23001;45.952;12.676;2024-01-25T06:28:06;3.80;99.90
37086;DHT22;23001;45.952;12.676;2024-01-25T06:30:32;3.90;99.90
37086;DHT22;23001;45.952;12.676;2024-01-25T06:32:58;3.90;99.90
37086;DHT22;23001;45.952;12.676;2024-01-25T06:35:24;4.00;99.90
37086;DHT22;23001;45.952;12.676;2024-01-25T06:41:16;4.10;99.90
37086;DHT22;23001;45.952;12.676;2024-01-25T06:43:45;4.00;99.90
37086;DHT22;23001;45.952;12.676;2024-01-25T06:46:14;4.10;99.90
37086;DHT22;23001;45.952;12.676;2024-01-25T06:48:40;4.10;99.90
37086;DHT22;23001;45.952;12.676;2024-01-25T06:51:47;4.10;99.90
37086;DHT22;23001;45.952;12.676;2024-01-25T06:54:12;4.10;99.90
37086;DHT22;23001;45.952;12.676;2024-01-25T06:56:37;4.20;99.90
37086;DHT22;23001;45.952;12.676;2024-01-25T07:02:26;4.30;99.90
37086;DHT22;23001;45.952;12.676;2024-01-25T07:04:52;4.30;99.90
37086;DHT22;23001;45.952;12.676;2024-01-25T07:07:19;4.30;99.90
37086;DHT22;23001;45.952;12.676;2024-01-25T07:09:47;4.30;99.90
37086;DHT22;23001;45.952;12.676;2024-01-25T07:12:13;4.30;99.90
37086;DHT22;23001;45.952;12.676;2024-01-25T07:14:39;4.30;99.90
37086;DHT22;23001;45.952;12.676;2024-01-25T07:17:04;4.30;99.90
37086;DHT22;23001;45.952;12.676;2024-01-25T07:19:30;4.30;99.90
37086;DHT22;23001;45.952;12.676;2024-01-25T07:25:15;4.40;99.90
37086;DHT22;23001;45.952;12.676;2024-01-25T07:27:55;4.40;99.90
37086;DHT22;23001;45.952;12.676;2024-01-25T07:30:21;4.40;99.90
37086;DHT22;23001;45.952;12.676;2024-01-25T07:39:32;4.50;99.90
37086;DHT22;23001;45.952;12.676;2024-01-25T07:44:55;4.50;99.90
37086;DHT22;23001;45.952;12.676;2024-01-25T07:47:21;4.60;99.90
37086;DHT22;23001;45.952;12.676;2024-01-25T07:49:48;4.60;99.90
37086;DHT22;23001;45.952;12.676;2024-01-25T07:52:14;4.60;99.90
37086;DHT22;23001;45.952;12.676;2024-01-25T07:54:40;4.60;99.90
37086;DHT22;23001;45.952;12.676;2024-01-25T07:57:06;4.70;99.90
37086;DHT22;23001;45.952;12.676;2024-01-25T07:59:35;4.70;99.90
37086;DHT22;23001;45.952;12.676;2024-01-25T08:02:00;4.70;99.90
37086;DHT22;23001;45.952;12.676;2024-01-25T08:04:26;4.70;99.90
37086;DHT22;23001;45.952;12.676;2024-01-25T08:06:52;4.80;99.90
37086;DHT22;23001;45.952;12.676;2024-01-25T08:09:18;4.80;99.90
37086;DHT22;23001;45.952;12.676;2024-01-25T08:11:44;4.80;99.90
37086;DHT22;23001;45.952;12.676;2024-01-25T08:14:10;4.90;99.90
37086;DHT22;23001;45.952;12.676;2024-01-25T08:16:37;4.90;99.90
37086;DHT22;23001;45.952;12.676;2024-01-25T08:19:02;4.90;99.90
37086;DHT22;23001;45.952;12.676;2024-01-25T08:21:28;4.90;99.90
37086;DHT22;23001;45.952;12.676;2024-01-25T08:29:36;5.10;99.90
37086;DHT22;23001;45.952;12.676;2024-01-25T08:32:23;5.10;99.90
37086;DHT22;23001;45.952;12.676;2024-01-25T08:34:49;5.20;99.90
37086;DHT22;23001;45.952;12.676;2024-01-25T08:37:36;5.20;99.90
37086;DHT22;23001;45.952;12.676;2024-01-25T08:40:16;5.30;99.90
37086;DHT22;23001;45.952;12.676;2024-01-25T08:42:51;5.40;99.90
37086;DHT22;23001;45.952;12.676;2024-01-25T08:45:40;5.50;99.90
37086;DHT22;23001;45.952;12.676;2024-01-25T08:48:06;5.60;99.90
37086;DHT22;23001;45.952;12.676;2024-01-25T08:50:35;5.60;99.90
37086;DHT22;23001;45.952;12.676;2024-01-25T08:53:01;5.70;99.90
37086;DHT22;23001;45.952;12.676;2024-01-25T08:55:26;5.90;99.90
37086;DHT22;23001;45.952;12.676;2024-01-25T08:57:52;5.90;99.90
37086;DHT22;23001;45.952;12.676;2024-01-25T09:00:18;6.00;99.90
37086;DHT22;23001;45.952;12.676;2024-01-25T09:02:49;6.00;99.90
37086;DHT22;23001;45.952;12.676;2024-01-25T09:05:16;6.00;99.90
37086;DHT22;23001;45.952;12.676;2024-01-25T09:11:08;6.10;99.90
37086;DHT22;23001;45.952;12.676;2024-01-25T09:13:34;6.10;99.90
37086;DHT22;23001;45.952;12.676;2024-01-25T09:16:00;6.10;99.90
37086;DHT22;23001;45.952;12.676;2024-01-25T09:18:26;6.10;99.90
37086;DHT22;23001;45.952;12.676;2024-01-25T09:27:37;6.40;99.90
37086;DHT22;23001;45.952;12.676;2024-01-25T09:30:21;6.40;99.90
37086;DHT22;23001;45.952;12.676;2024-01-25T09:32:47;6.40;99.90
37086;DHT22;23001;45.952;12.676;2024-01-25T09:35:13;6.50;99.90
37086;DHT22;23001;45.952;12.676;2024-01-25T09:37:39;6.60;99.90
37086;DHT22;23001;45.952;12.676;2024-01-25T09:40:06;6.60;99.90
37086;DHT22;23001;45.952;12.676;2024-01-25T09:42:31;6.70;99.90
37086;DHT22;23001;45.952;12.676;2024-01-25T09:54:53;7.10;99.90
37086;DHT22;23001;45.952;12.676;2024-01-25T09:57:24;7.20;99.90
37086;DHT22;23001;45.952;12.676;2024-01-25T09:59:54;7.30;99.90
37086;DHT22;23001;45.952;12.676;2024-01-25T10:02:23;7.20;99.90
37086;DHT22;23001;45.952;12.676;2024-01-25T10:04:55;7.20;99.90
37086;DHT22;23001;45.952;12.676;2024-01-25T10:11:09;7.40;99.90
37086;DHT22;23001;45.952;12.676;2024-01-25T10:14:00;7.60;99.90
37086;DHT22;23001;45.952;12.676;2024-01-25T10:16:26;7.70;99.90
37086;DHT22;23001;45.952;12.676;2024-01-25T10:18:53;7.80;99.90
37086;DHT22;23001;45.952;12.676;2024-01-25T10:21:40;7.90;99.90
37086;DHT22;23001;45.952;12.676;2024-01-25T10:24:06;7.90;99.90
37086;DHT22;23001;45.952;12.676;2024-01-25T10:26:34;8.00;99.90
37086;DHT22;23001;45.952;12.676;2024-01-25T10:29:01;8.10;99.90
37086;DHT22;23001;45.952;12.676;2024-01-25T10:31:40;8.00;99.90
37086;DHT22;23001;45.952;12.676;2024-01-25T10:34:09;8.10;99.90
37086;DHT22;23001;45.952;12.676;2024-01-25T10:36:37;8.30;99.90
37086;DHT22;23001;45.952;12.676;2024-01-25T10:39:03;8.40;99.90
37086;DHT22;23001;45.952;12.676;2024-01-25T10:41:31;8.50;99.90
37086;DHT22;23001;45.952;12.676;2024-01-25T10:43:58;8.40;99.90
37086;DHT22;23001;45.952;12.676;2024-01-25T10:46:24;8.40;99.90
37086;DHT22;23001;45.952;12.676;2024-01-25T10:48:51;8.60;99.90
37086;DHT22;23001;45.952;12.676;2024-01-25T10:54:40;8.70;99.90
37086;DHT22;23001;45.952;12.676;2024-01-25T10:57:06;8.80;99.90
37086;DHT22;23001;45.952;12.676;2024-01-25T10:59:32;8.90;99.90
37086;DHT22;23001;45.952;12.676;2024-01-25T11:02:00;9.00;99.90
37086;DHT22;23001;45.952;12.676;2024-01-25T11:04:27;9.00;99.90
37086;DHT22;23001;45.952;12.676;2024-01-25T11:07:07;9.10;99.90
37086;DHT22;23001;45.952;12.676;2024-01-25T11:09:37;9.00;99.90
37086;DHT22;23001;45.952;12.676;2024-01-25T11:12:12;9.20;99.90
37086;DHT22;23001;45.952;12.676;2024-01-25T11:14:44;9.30;99.90
37086;DHT22;23001;45.952;12.676;2024-01-25T11:17:20;9.30;99.90
37086;DHT22;23001;45.952;12.676;2024-01-25T11:19:47;9.30;99.90
37086;DHT22;23001;45.952;12.676;2024-01-25T11:22:14;9.30;99.90
37086;DHT22;23001;45.952;12.676;2024-01-25T11:24:39;9.30;99.90
37086;DHT22;23001;45.952;12.676;2024-01-25T11:27:06;9.40;99.90
37086;DHT22;23001;45.952;12.676;2024-01-25T11:29:39;9.40;99.90
37086;DHT22;23001;45.952;12.676;2024-01-25T11:32:06;9.50;99.90
37086;DHT22;23001;45.952;12.676;2024-01-25T11:34:32;9.60;99.90
37086;DHT22;23001;45.952;12.676;2024-01-25T11:36:58;9.50;99.90
37086;DHT22;23001;45.952;12.676;2024-01-25T11:39:26;9.50;99.90
37086;DHT22;23001;45.952;12.676;2024-01-25T11:41:52;9.50;99.90
37086;DHT22;23001;45.952;12.676;2024-01-25T11:44:19;9.60;99.90
37086;DHT22;23001;45.952;12.676;2024-01-25T11:46:45;9.70;99.90
37086;DHT22;23001;45.952;12.676;2024-01-25T11:49:10;9.80;99.90
37086;DHT22;23001;45.952;12.676;2024-01-25T11:51:36;9.80;99.90
37086;DHT22;23001;45.952;12.676;2024-01-25T11:54:02;9.80;99.90
37086;DHT22;23001;45.952;12.676;2024-01-25T11:56:34;9.80;99.90
37086;DHT22;23001;45.952;12.676;2024-01-25T11:59:19;9.90;99.90
37086;DHT22;23001;45.952;12.676;2024-01-25T12:01:45;9.90;99.90
37086;DHT22;23001;45.952;12.676;2024-01-25T12:04:11;9.90;99.90
37086;DHT22;23001;45.952;12.676;2024-01-25T12:06:37;9.90;99.90
37086;DHT22;23001;45.952;12.676;2024-01-25T12:09:09;10.00;99.90
37086;DHT22;23001;45.952;12.676;2024-01-25T12:11:35;10.10;99.90
37086;DHT22;23001;45.952;12.676;2024-01-25T12:14:00;10.10;99.90
37086;DHT22;23001;45.952;12.676;2024-01-25T12:16:26;10.30;99.90
37086;DHT22;23001;45.952;12.676;2024-01-25T12:18:53;10.20;99.90
37086;DHT22;23001;45.952;12.676;2024-01-25T12:21:19;10.40;99.90
37086;DHT22;23001;45.952;12.676;2024-01-25T12:23:45;10.40;99.90
37086;DHT22;23001;45.952;12.676;2024-01-25T12:26:11;10.40;99.90
37086;DHT22;23001;45.952;12.676;2024-01-25T12:28:37;10.30;99.90
37086;DHT22;23001;45.952;12.676;2024-01-25T12:31:04;10.40;99.90
37086;DHT22;23001;45.952;12.676;2024-01-25T12:33:31;10.40;99.90
37086;DHT22;23001;45.952;12.676;2024-01-25T12:35:57;10.50;99.90
37086;DHT22;23001;45.952;12.676;2024-01-25T12:38:24;10.60;99.90
37086;DHT22;23001;45.952;12.676;2024-01-25T12:40:51;10.60;99.90
37086;DHT22;23001;45.952;12.676;2024-01-25T12:43:18;10.70;99.90
37086;DHT22;23001;45.952;12.676;2024-01-25T12:45:44;10.70;99.90
37086;DHT22;23001;45.952;12.676;2024-01-25T12:48:21;10.70;99.90
37086;DHT22;23001;45.952;12.676;2024-01-25T12:50:47;10.70;99.90
37086;DHT22;23001;45.952;12.676;2024-01-25T12:53:13;10.60;99.90
37086;DHT22;23001;45.952;12.676;2024-01-25T12:55:40;10.60;99.90
37086;DHT22;23001;45.952;12.676;2024-01-25T12:58:06;10.70;99.90
37086;DHT22;23001;45.952;12.676;2024-01-25T13:00:32;10.80;99.90
37086;DHT22;23001;45.952;12.676;2024-01-25T13:02:58;10.80;99.90
37086;DHT22;23001;45.952;12.676;2024-01-25T13:05:27;10.80;99.90
37086;DHT22;23001;45.952;12.676;2024-01-25T13:07:53;10.80;99.90
37086;DHT22;23001;45.952;12.676;2024-01-25T13:10:19;10.90;99.90
37086;DHT22;23001;45.952;12.676;2024-01-25T13:12:45;10.90;99.90
37086;DHT22;23001;45.952;12.676;2024-01-25T13:15:10;10.90;99.90
37086;DHT22;23001;45.952;12.676;2024-01-25T13:17:36;10.90;99.90
37086;DHT22;23001;45.952;12.676;2024-01-25T13:20:06;11.00;99.90
37086;DHT22;23001;45.952;12.676;2024-01-25T13:22:33;11.00;99.90
37086;DHT22;23001;45.952;12.676;2024-01-25T13:25:00;11.00;99.90
37086;DHT22;23001;45.952;12.676;2024-01-25T13:27:45;11.10;99.90
37086;DHT22;23001;45.952;12.676;2024-01-25T13:30:11;11.00;99.90
37086;DHT22;23001;45.952;12.676;2024-01-25T13:32:40;11.10;99.90
37086;DHT22;23001;45.952;12.676;2024-01-25T13:35:06;11.30;99.90
37086;DHT22;23001;45.952;12.676;2024-01-25T13:37:32;11.30;99.90
37086;DHT22;23001;45.952;12.676;2024-01-25T13:39:58;11.30;99.90
37086;DHT22;23001;45.952;12.676;2024-01-25T13:42:27;11.40;99.90
37086;DHT22;23001;45.952;12.676;2024-01-25T13:44:56;11.30;99.90
37086;DHT22;23001;45.952;12.676;2024-01-25T13:47:22;11.40;99.90
37086;DHT22;23001;45.952;12.676;2024-01-25T13:49:48;11.40;99.90
37086;DHT22;23001;45.952;12.676;2024-01-25T13:52:18;11.40;99.90
37086;DHT22;23001;45.952;12.676;2024-01-25T13:54:45;11.40;99.90
37086;DHT22;23001;45.952;12.676;2024-01-25T13:57:11;11.50;99.90
37086;DHT22;23001;45.952;12.676;2024-01-25T13:59:37;11.50;99.90
37086;DHT22;23001;45.952;12.676;2024-01-25T14:02:03;11.60;99.90
37086;DHT22;23001;45.952;12.676;2024-01-25T14:04:31;11.60;99.90
37086;DHT22;23001;45.952;12.676;2024-01-25T14:06:57;11.60;99.90
37086;DHT22;23001;45.952;12.676;2024-01-25T14:09:23;11.70;99.90
37086;DHT22;23001;45.952;12.676;2024-01-25T14:22:31;11.50;99.90
37086;DHT22;23001;45.952;12.676;2024-01-25T14:24:57;11.50;99.90
37086;DHT22;23001;45.952;12.676;2024-01-25T14:27:23;11.60;99.90
37086;DHT22;23001;45.952;12.676;2024-01-25T14:29:51;11.50;99.90
37086;DHT22;23001;45.952;12.676;2024-01-25T14:32:17;11.50;99.90
37086;DHT22;23001;45.952;12.676;2024-01-25T14:34:45;11.60;99.90
37086;DHT22;23001;45.952;12.676;2024-01-25T14:37:11;11.50;99.90
37086;DHT22;23001;45.952;12.676;2024-01-25T14:39:37;11.60;99.90
37086;DHT22;23001;45.952;12.676;2024-01-25T14:42:03;11.60;99.90
37086;DHT22;23001;45.952;12.676;2024-01-25T14:44:29;11.60;99.90
37086;DHT22;23001;45.952;12.676;2024-01-25T14:46:55;11.50;99.90
37086;DHT22;23001;45.952;12.676;2024-01-25T14:49:24;11.50;99.90
37086;DHT22;23001;45.952;12.676;2024-01-25T14:51:50;11.40;99.90
37086;DHT22;23001;45.952;12.676;2024-01-25T14:54:16;11.40;99.90
37086;DHT22;23001;45.952;12.676;2024-01-25T14:56:41;11.40;99.90
37086;DHT22;23001;45.952;12.676;2024-01-25T14:59:07;11.50;99.90
37086;DHT22;23001;45.952;12.676;2024-01-25T15:01:33;11.40;99.90
37086;DHT22;23001;45.952;12.676;2024-01-25T15:03:59;11.40;99.90
37086;DHT22;23001;45.952;12.676;2024-01-25T15:06:28;11.40;99.90
37086;DHT22;23001;45.952;12.676;2024-01-25T15:08:54;11.40;99.90
37086;DHT22;23001;45.952;12.676;2024-01-25T15:11:19;11.30;99.90
37086;DHT22;23001;45.952;12.676;2024-01-25T15:13:45;11.20;99.90
37086;DHT22;23001;45.952;12.676;2024-01-25T15:16:11;11.20;99.90
37086;DHT22;23001;45.952;12.676;2024-01-25T15:18:37;11.10;99.90
37086;DHT22;23001;45.952;12.676;2024-01-25T15:21:02;11.10;99.90
37086;DHT22;23001;45.952;12.676;2024-01-25T15:23:28;10.90;99.90
37086;DHT22;23001;45.952;12.676;2024-01-25T15:25:54;10.90;99.90
37086;DHT22;23001;45.952;12.676;2024-01-25T15:28:20;10.80;99.90
37086;DHT22;23001;45.952;12.676;2024-01-25T15:30:46;10.80;99.90
37086;DHT22;23001;45.952;12.676;2024-01-25T15:33:12;10.80;99.90
37086;DHT22;23001;45.952;12.676;2024-01-25T15:35:37;10.80;99.90
37086;DHT22;23001;45.952;12.676;2024-01-25T15:38:03;10.80;99.90
37086;DHT22;23001;45.952;12.676;2024-01-25T15:40:34;10.70;99.90
37086;DHT22;23001;45.952;12.676;2024-01-25T15:43:00;10.50;99.90
37086;DHT22;23001;45.952;12.676;2024-01-25T15:45:44;10.40;99.90
37086;DHT22;23001;45.952;12.676;2024-01-25T15:48:10;10.30;99.90
37086;DHT22;23001;45.952;12.676;2024-01-25T15:50:38;10.20;99.90
37086;DHT22;23001;45.952;12.676;2024-01-25T15:53:05;10.10;99.90
37086;DHT22;23001;45.952;12.676;2024-01-25T15:55:31;10.10;99.90
37086;DHT22;23001;45.952;12.676;2024-01-25T15:57:57;10.00;99.90
37086;DHT22;23001;45.952;12.676;2024-01-25T16:00:25;9.90;99.90
37086;DHT22;23001;45.952;12.676;2024-01-25T16:02:51;10.00;99.90
37086;DHT22;23001;45.952;12.676;2024-01-25T16:05:17;9.90;99.90
37086;DHT22;23001;45.952;12.676;2024-01-25T16:07:43;9.90;99.90
37086;DHT22;23001;45.952;12.676;2024-01-25T16:10:09;9.80;99.90
37086;DHT22;23001;45.952;12.676;2024-01-25T16:12:36;9.60;99.90
37086;DHT22;23001;45.952;12.676;2024-01-25T16:15:03;9.60;99.90
37086;DHT22;23001;45.952;12.676;2024-01-25T16:17:32;9.60;99.90
37086;DHT22;23001;45.952;12.676;2024-01-25T16:20:01;9.70;99.90
37086;DHT22;23001;45.952;12.676;2024-01-25T16:22:27;9.70;99.90
37086;DHT22;23001;45.952;12.676;2024-01-25T16:24:52;9.60;99.90
37086;DHT22;23001;45.952;12.676;2024-01-25T16:27:21;9.60;99.90
37086;DHT22;23001;45.952;12.676;2024-01-25T16:29:47;9.50;99.90
37086;DHT22;23001;45.952;12.676;2024-01-25T16:32:16;9.60;99.90
37086;DHT22;23001;45.952;12.676;2024-01-25T16:34:42;9.50;99.90
37086;DHT22;23001;45.952;12.676;2024-01-25T16:37:09;9.50;99.90